Time;durP1;ratioP1;P1;durP2;ratioP2;P2;SDS_P1;SDS_P2;PMS_P1;PMS_P2;Temp;Humidity;BMP_temperature;BMP_pressure;BME280_temperature;BME280_humidity;BME280_pressure;Samples;Min_cycle;Max_cycle;Signal;HPM_P1;HPM_P2
2021/06/16 00:01:45;;;;;;;3.05;1.50;;;;;;;20.17;48.27;99027.94;5066268;28;20103;-73
2021/06/16 00:04:11;;;;;;;4.68;1.85;;;;;;;20.15;48.20;99030.34;5051882;28;20021;-73
2021/06/16 00:06:37;;;;;;;2.63;1.75;;;;;;;20.09;48.31;99023.50;5056787;28;20043;-73
2021/06/16 00:09:04;;;;;;;2.15;1.60;;;;;;;20.02;48.72;99022.28;5051975;28;20123;-73
2021/06/16 00:11:29;;;;;;;2.63;1.58;;;;;;;20.04;48.74;99010.53;5052729;28;20037;-73
2021/06/16 00:13:55;;;;;;;7.95;2.47;;;;;;;20.00;48.88;99023.94;5055000;28;20021;-73
2021/06/16 00:16:21;;;;;;;3.58;1.63;;;;;;;19.91;49.11;99013.78;5063880;28;20387;-73
2021/06/16 00:18:47;;;;;;;3.58;1.50;;;;;;;19.87;49.36;99017.84;5054939;28;20070;-73
2021/06/16 00:21:14;;;;;;;4.22;1.70;;;;;;;19.80;49.28;99012.22;5068398;28;20040;-73
2021/06/16 00:23:40;;;;;;;3.58;2.25;;;;;;;19.73;49.90;99018.69;5053585;28;20036;-73
2021/06/16 00:26:06;;;;;;;2.00;1.90;;;;;;;19.71;50.27;99013.44;5058561;28;20043;-73
2021/06/16 00:28:31;;;;;;;5.22;2.13;;;;;;;19.72;50.53;99006.53;5068539;28;20111;-73
2021/06/16 00:30:57;;;;;;;4.25;1.90;;;;;;;19.73;50.36;99007.34;5069995;28;20036;-73
2021/06/16 00:33:23;;;;;;;1.52;1.42;;;;;;;19.76;50.37;99009.38;5063372;28;20069;-73
2021/06/16 00:35:48;;;;;;;7.05;2.90;;;;;;;19.68;50.68;99011.44;5062005;28;20129;-73
2021/06/16 00:38:14;;;;;;;6.25;2.30;;;;;;;19.58;51.26;99003.75;5056176;28;20020;-73
2021/06/16 00:40:39;;;;;;;2.95;1.95;;;;;;;19.56;50.94;99001.31;5068518;28;20565;-73
2021/06/16 00:43:05;;;;;;;6.20;2.20;;;;;;;19.62;51.47;98996.03;5060087;28;20025;-74
2021/06/16 00:45:31;;;;;;;2.35;1.80;;;;;;;19.59;51.39;98991.19;5062935;28;20121;-74
2021/06/16 00:47:58;;;;;;;3.05;2.03;;;;;;;19.67;51.47;98995.63;5061366;28;20049;-74
2021/06/16 00:50:30;;;;;;;3.25;1.95;;;;;;;19.69;51.19;98993.19;5059598;28;20115;-74
2021/06/16 00:52:55;;;;;;;3.13;1.38;;;;;;;19.69;51.05;98987.50;5053086;28;20079;-72
2021/06/16 00:55:21;;;;;;;3.42;1.75;;;;;;;19.69;51.01;98989.53;5057107;28;20037;-73
2021/06/16 00:57:47;;;;;;;5.78;1.90;;;;;;;19.55;50.84;98991.19;5069851;28;20056;-74
2021/06/16 01:00:26;;;;;;;2.67;1.60;;;;;;;19.60;51.01;98987.91;5068283;28;20469;-73
2021/06/16 01:02:57;;;;;;;3.53;2.25;;;;;;;19.62;51.16;99001.69;5056759;28;20032;-74
2021/06/16 01:05:33;;;;;;;2.92;1.83;;;;;;;19.49;52.00;98984.31;5058381;28;20033;-72
2021/06/16 01:08:01;;;;;;;6.85;2.03;;;;;;;19.47;52.21;98993.22;5072001;28;20418;-74
2021/06/16 01:10:30;;;;;;;2.10;1.65;;;;;;;19.39;52.74;98990.81;5066862;28;20064;-73
2021/06/16 01:13:02;;;;;;;1.83;1.63;;;;;;;19.32;53.00;98986.75;5071816;28;20036;-72
2021/06/16 01:15:32;;;;;;;2.47;2.20;;;;;;;19.34;52.64;98984.31;5073257;28;20473;-72
2021/06/16 01:18:01;;;;;;;2.63;1.83;;;;;;;19.31;53.01;98987.19;5073143;28;20055;-72
2021/06/16 01:20:31;;;;;;;5.63;2.55;;;;;;;19.26;53.49;98973.41;5057857;28;20309;-72
2021/06/16 01:23:09;;;;;;;2.22;1.90;;;;;;;19.20;53.61;98978.66;5071183;28;20107;-73
2021/06/16 01:25:41;;;;;;;6.72;2.30;;;;;;;19.24;53.75;98970.16;5062980;28;20047;-73
2021/06/16 01:28:10;;;;;;;2.13;1.80;;;;;;;19.12;54.30;98972.19;5067906;28;20028;-72
2021/06/16 01:30:37;;;;;;;3.03;2.00;;;;;;;19.17;54.17;98966.09;5072955;28;20131;-72
2021/06/16 01:33:05;;;;;;;2.75;2.13;;;;;;;19.19;54.19;98962.88;5071392;28;20064;-73
2021/06/16 01:35:31;;;;;;;4.93;2.00;;;;;;;19.24;54.19;98970.16;5071437;28;20048;-72
2021/06/16 01:37:59;;;;;;;2.97;2.20;;;;;;;19.21;54.00;98966.94;5066497;28;20032;-73
2021/06/16 01:40:25;;;;;;;2.42;2.03;;;;;;;19.31;53.99;98956.78;5061745;28;20040;-73
2021/06/16 01:42:53;;;;;;;5.28;1.77;;;;;;;19.26;53.73;98951.53;5071116;28;20021;-74
2021/06/16 01:45:20;;;;;;;4.13;1.98;;;;;;;19.32;53.81;98946.28;5064801;28;20032;-74
2021/06/16 01:47:48;;;;;;;2.45;2.25;;;;;;;19.27;53.82;98947.50;5044568;28;20044;-73
2021/06/16 01:50:19;;;;;;;6.45;2.60;;;;;;;19.26;53.64;98954.38;5070682;28;20036;-73
2021/06/16 01:52:48;;;;;;;4.97;2.08;;;;;;;19.28;53.59;98953.94;5070606;28;20036;-72
2021/06/16 01:55:15;;;;;;;4.20;2.40;;;;;;;19.30;53.67;98948.69;5066695;28;20495;-73
2021/06/16 01:57:41;;;;;;;4.75;2.10;;;;;;;19.35;53.57;98953.94;5060577;28;20507;-74
2021/06/16 02:00:07;;;;;;;2.80;1.83;;;;;;;19.36;53.50;98949.91;5072674;28;20040;-72
2021/06/16 02:02:33;;;;;;;5.18;2.40;;;;;;;19.31;53.84;98948.28;5072209;28;20032;-73
2021/06/16 02:04:59;;;;;;;3.30;2.65;;;;;;;19.33;54.13;98962.06;5068329;28;20033;-72
2021/06/16 02:07:29;;;;;;;2.95;2.05;;;;;;;19.31;54.24;98958.84;5063748;28;20032;-73
2021/06/16 02:09:57;;;;;;;3.70;2.17;;;;;;;19.35;54.31;98968.91;5063459;28;20511;-72
2021/06/16 02:12:23;;;;;;;2.47;2.28;;;;;;;19.46;53.83;98973.78;5064460;28;20395;-72
2021/06/16 02:15:04;;;;;;;5.30;2.42;;;;;;;19.57;53.76;98985.13;5053739;28;20034;-72
2021/06/16 02:17:32;;;;;;;3.72;2.00;;;;;;;19.48;53.79;98996.84;5070192;28;20534;-72
2021/06/16 02:19:58;;;;;;;5.25;2.20;;;;;;;19.36;54.04;99000.94;5069857;28;20048;-73
2021/06/16 02:22:26;;;;;;;10.27;3.05;;;;;;;19.47;54.19;99001.72;5067836;28;20402;-74
2021/06/16 02:24:52;;;;;;;5.57;2.40;;;;;;;19.42;54.02;98998.50;5060366;28;20487;-72
2021/06/16 02:27:18;;;;;;;2.90;2.20;;;;;;;19.38;54.03;98983.53;5055564;28;20457;-72
2021/06/16 02:29:43;;;;;;;6.88;2.72;;;;;;;19.24;54.54;98987.97;5070404;28;20064;-72
2021/06/16 02:32:09;;;;;;;2.95;2.22;;;;;;;19.28;54.65;98985.13;5057969;28;20482;-72
2021/06/16 02:34:35;;;;;;;22.52;18.05;;;;;;;19.29;54.41;98981.09;5060612;28;20044;-73
2021/06/16 02:37:03;;;;;;;26.92;20.67;;;;;;;19.35;54.58;98985.13;5061292;28;20025;-73
2021/06/16 02:39:51;;;;;;;4.53;4.13;;;;;;;19.38;54.29;98994.88;5065418;28;20043;-72
2021/06/16 02:42:18;;;;;;;3.65;3.08;;;;;;;19.30;54.68;98985.53;5056769;28;20034;-72
2021/06/16 02:44:44;;;;;;;5.97;2.35;;;;;;;19.35;54.65;98997.28;5066545;28;20037;-73
2021/06/16 02:47:11;;;;;;;2.80;2.42;;;;;;;19.42;54.46;98993.63;5062102;28;20103;-73
2021/06/16 02:49:58;;;;;;;5.85;2.47;;;;;;;19.42;54.20;99002.13;5063985;28;20483;-72
2021/06/16 02:52:25;;;;;;;2.53;2.33;;;;;;;19.47;54.02;98998.91;5062051;28;20474;-73
2021/06/16 02:55:03;;;;;;;2.80;2.60;;;;;;;19.53;54.32;99004.13;5065136;28;20403;-72
2021/06/16 02:57:34;;;;;;;8.10;2.80;;;;;;;19.54;53.95;99002.91;5061590;28;20119;-73
2021/06/16 03:00:02;;;;;;;3.13;2.70;;;;;;;19.54;54.12;99000.09;5066065;28;20040;-73
2021/06/16 03:02:29;;;;;;;3.40;2.65;;;;;;;19.54;54.12;99005.75;5071440;28;20021;-72
2021/06/16 03:04:57;;;;;;;4.22;2.40;;;;;;;19.56;53.77;99009.81;5070940;28;20090;-73
2021/06/16 03:07:25;;;;;;;7.40;2.88;;;;;;;19.50;54.10;99012.25;5061112;28;20159;-72
2021/06/16 03:09:51;;;;;;;3.25;2.53;;;;;;;19.52;54.16;99011.03;5055189;28;20044;-72
2021/06/16 03:12:20;;;;;;;7.90;3.03;;;;;;;19.43;54.46;99012.28;5070763;28;20115;-73
2021/06/16 03:14:48;;;;;;;6.80;2.50;;;;;;;19.44;54.50;99019.56;5071094;28;20068;-73
2021/06/16 03:17:17;;;;;;;4.88;2.95;;;;;;;19.41;54.43;99019.56;5063548;28;20047;-73
2021/06/16 03:19:44;;;;;;;7.68;2.75;;;;;;;19.38;54.63;99026.06;5058660;28;20494;-73
2021/06/16 03:22:10;;;;;;;3.85;2.58;;;;;;;19.43;54.50;99025.63;5069100;28;20482;-72
2021/06/16 03:24:37;;;;;;;6.30;2.55;;;;;;;19.44;54.51;99019.56;5059130;28;20037;-72
2021/06/16 03:27:04;;;;;;;6.68;2.60;;;;;;;19.41;54.55;99028.06;5054711;28;20040;-73
2021/06/16 03:29:32;;;;;;;4.15;2.95;;;;;;;19.49;54.47;99036.16;5052592;28;20106;-72
2021/06/16 03:31:59;;;;;;;5.25;3.15;;;;;;;19.47;54.40;99043.44;5052911;28;20056;-72
2021/06/16 03:34:25;;;;;;;7.20;3.08;;;;;;;19.47;54.58;99037.78;5052193;28;20020;-73
2021/06/16 03:36:53;;;;;;;8.93;2.65;;;;;;;19.52;54.33;99037.38;5054060;28;20040;-73
2021/06/16 03:39:19;;;;;;;7.30;2.85;;;;;;;19.53;54.42;99041.00;5067651;28;20025;-72
2021/06/16 03:41:46;;;;;;;2.78;2.47;;;;;;;19.47;54.92;99038.59;5068760;28;20043;-72
2021/06/16 03:44:12;;;;;;;4.15;2.83;;;;;;;19.45;55.06;99032.53;5063452;28;20035;-72
2021/06/16 03:46:40;;;;;;;5.75;2.97;;;;;;;19.48;54.99;99028.88;5058689;28;20025;-73
2021/06/16 03:49:09;;;;;;;3.33;2.60;;;;;;;19.44;55.14;99028.06;5054694;28;20111;-74
2021/06/16 03:51:36;;;;;;;6.88;3.13;;;;;;;19.42;55.18;99029.69;5052354;28;20060;-75
2021/06/16 03:54:11;;;;;;;12.02;2.97;;;;;;;19.36;55.72;99026.44;5054828;28;20032;-72
2021/06/16 03:56:40;;;;;;;4.07;2.95;;;;;;;19.41;55.33;99026.03;5060585;28;20047;-72
2021/06/16 03:59:07;;;;;;;2.97;2.40;;;;;;;19.42;55.51;99024.00;5066077;28;20025;-72
2021/06/16 04:01:33;;;;;;;5.03;2.95;;;;;;;19.38;55.46;99035.34;5068687;28;20118;-73
2021/06/16 04:04:03;;;;;;;6.32;3.00;;;;;;;19.40;55.61;99035.75;5064844;28;20028;-73
2021/06/16 04:06:28;;;;;;;5.93;3.25;;;;;;;19.35;55.69;99034.13;5061160;28;20037;-72
2021/06/16 04:08:54;;;;;;;3.20;2.88;;;;;;;19.24;56.01;99036.16;5063728;28;20024;-72
2021/06/16 04:11:20;;;;;;;9.82;3.17;;;;;;;19.28;56.24;99039.00;5059387;28;20104;-74
2021/06/16 04:13:45;;;;;;;15.40;3.53;;;;;;;19.33;55.98;99038.63;5054892;28;20083;-72
2021/06/16 04:16:11;;;;;;;2.88;2.67;;;;;;;19.28;56.28;99044.66;5069456;28;20036;-73
2021/06/16 04:18:43;;;;;;;3.70;3.22;;;;;;;19.31;56.22;99041.84;5067608;28;20055;-72
2021/06/16 04:21:09;;;;;;;6.20;2.92;;;;;;;19.33;55.96;99033.72;5061585;28;20093;-73
2021/06/16 04:23:34;;;;;;;5.03;2.95;;;;;;;19.35;55.79;99039.00;5067257;28;20025;-73
2021/06/16 04:26:00;;;;;;;6.43;2.95;;;;;;;19.26;55.67;99042.25;5064347;28;20094;-73
2021/06/16 04:28:25;;;;;;;3.72;2.67;;;;;;;19.19;55.68;99031.72;5065321;28;20056;-73
2021/06/16 04:30:51;;;;;;;5.97;3.13;;;;;;;19.18;55.58;99041.41;5052277;28;20036;-72
2021/06/16 04:33:16;;;;;;;12.70;3.00;;;;;;;19.29;55.06;99034.94;5063244;28;20083;-73
2021/06/16 04:35:42;;;;;;;4.03;2.80;;;;;;;19.29;54.91;99030.09;5068169;28;20043;-71
2021/06/16 04:38:08;;;;;;;5.28;2.83;;;;;;;19.33;54.78;99036.56;5067864;28;20032;-72
2021/06/16 04:40:34;;;;;;;4.75;2.85;;;;;;;19.34;54.66;99043.84;5057551;28;20796;-71
2021/06/16 04:42:59;;;;;;;2.80;2.33;;;;;;;19.36;54.72;99043.47;5053498;28;20028;-71
2021/06/16 04:45:25;;;;;;;5.20;2.90;;;;;;;19.33;54.73;99041.44;5055077;28;20028;-73
2021/06/16 04:47:50;;;;;;;6.80;2.70;;;;;;;19.36;54.85;99046.31;5054833;28;20040;-71
2021/06/16 04:50:16;;;;;;;5.50;2.88;;;;;;;19.34;54.69;99049.53;5058965;28;20028;-73
2021/06/16 04:52:42;;;;;;;5.43;2.95;;;;;;;19.44;54.79;99053.59;5055805;28;20391;-73
2021/06/16 04:55:09;;;;;;;9.00;2.95;;;;;;;19.50;54.64;99062.50;5056353;28;20462;-72
2021/06/16 04:57:35;;;;;;;3.15;2.63;;;;;;;19.41;55.07;99062.09;5072115;28;20039;-73
2021/06/16 05:00:00;;;;;;;5.70;2.92;;;;;;;19.57;54.75;99056.03;5071580;28;20441;-72
2021/06/16 05:02:26;;;;;;;7.65;4.00;;;;;;;19.68;54.58;99056.00;5072392;28;20110;-72
2021/06/16 05:04:51;;;;;;;6.53;3.05;;;;;;;19.71;54.39;99060.84;5073280;28;20037;-72
2021/06/16 05:07:17;;;;;;;5.55;2.85;;;;;;;19.69;54.57;99063.28;5071335;28;20029;-72
2021/06/16 05:09:42;;;;;;;5.88;2.88;;;;;;;19.71;54.67;99066.53;5072003;28;20041;-72
2021/06/16 05:12:09;;;;;;;5.03;3.17;;;;;;;19.76;54.61;99072.59;5065232;28;20499;-72
2021/06/16 05:14:34;;;;;;;4.10;2.90;;;;;;;19.72;54.80;99065.28;5064029;28;20032;-72
2021/06/16 05:17:00;;;;;;;4.85;3.08;;;;;;;19.69;54.89;99068.97;5057249;28;20056;-73
2021/06/16 05:19:25;;;;;;;11.10;3.83;;;;;;;19.58;55.30;99069.78;5057093;28;20029;-72
2021/06/16 05:21:51;;;;;;;12.00;3.70;;;;;;;19.55;55.51;99064.09;5061623;28;20033;-72
2021/06/16 05:24:18;;;;;;;8.27;3.45;;;;;;;19.62;55.50;99076.28;5061531;28;20048;-71
2021/06/16 05:26:44;;;;;;;3.63;2.92;;;;;;;19.64;56.15;99084.34;5068449;28;20028;-76
2021/06/16 05:29:10;;;;;;;4.82;3.30;;;;;;;19.67;56.45;99080.72;5064804;28;20024;-71
2021/06/16 05:31:37;;;;;;;5.25;3.15;;;;;;;19.73;56.39;99083.94;5060728;28;20025;-79
2021/06/16 05:34:03;;;;;;;4.70;3.42;;;;;;;19.73;56.92;99095.28;5072398;28;20021;-71
2021/06/16 05:36:29;;;;;;;15.88;6.65;;;;;;;19.68;56.84;99095.72;5069913;28;20036;-77
2021/06/16 05:38:55;;;;;;;3.92;3.42;;;;;;;19.63;56.81;99103.41;5055589;28;20116;-74
2021/06/16 05:41:21;;;;;;;7.28;4.15;;;;;;;19.59;56.87;99105.44;5057126;28;20028;-72
2021/06/16 05:43:47;;;;;;;8.82;6.15;;;;;;;19.64;56.71;99112.72;5059365;28;20028;-76
2021/06/16 05:46:12;;;;;;;15.52;10.25;;;;;;;19.62;56.74;99113.16;5056437;28;20047;-73
2021/06/16 05:48:38;;;;;;;14.13;8.38;;;;;;;19.60;56.57;99103.41;5058312;28;20017;-73
2021/06/16 05:51:04;;;;;;;9.75;5.45;;;;;;;19.58;56.64;99114.38;5068945;28;20051;-76
2021/06/16 05:53:29;;;;;;;10.65;3.95;;;;;;;19.55;56.48;99115.16;5063916;28;20308;-74
2021/06/16 05:55:55;;;;;;;11.00;4.05;;;;;;;19.54;56.73;99108.69;5066065;28;20037;-81
2021/06/16 05:58:20;;;;;;;13.35;3.33;;;;;;;19.49;56.80;99109.09;5060653;28;20029;-88
2021/06/16 06:00:46;;;;;;;9.55;3.53;;;;;;;19.48;56.50;99111.13;5080018;28;20041;-74
2021/06/16 06:03:12;;;;;;;6.75;4.10;;;;;;;19.53;56.82;99111.91;5050797;28;20104;-73
2021/06/16 06:05:37;;;;;;;15.23;3.95;;;;;;;19.53;56.83;99111.91;5068691;28;20036;-75
2021/06/16 06:08:03;;;;;;;6.65;3.58;;;;;;;19.61;56.52;99103.03;5060317;28;20036;-74
2021/06/16 06:10:28;;;;;;;5.63;3.03;;;;;;;19.64;56.21;99112.72;5059366;28;20501;-76
2021/06/16 06:12:56;;;;;;;6.38;3.10;;;;;;;19.67;56.36;99117.59;5058072;28;20587;-75
2021/06/16 06:15:21;;;;;;;4.82;3.85;;;;;;;19.67;56.00;99126.13;5058073;28;20481;-75
2021/06/16 06:17:47;;;;;;;9.48;3.50;;;;;;;19.80;55.64;99122.88;5060715;28;20049;-76
2021/06/16 06:20:13;;;;;;;6.70;3.47;;;;;;;19.92;55.15;99134.63;5066067;28;20045;-76
2021/06/16 06:22:38;;;;;;;17.30;3.80;;;;;;;20.00;55.07;99134.63;5070441;28;20025;-77
2021/06/16 06:25:04;;;;;;;3.95;3.33;;;;;;;20.06;55.10;99141.50;5062294;28;20112;-75
2021/06/16 06:27:30;;;;;;;10.38;3.47;;;;;;;20.03;55.12;99137.47;5057364;28;20499;-76
2021/06/16 06:29:55;;;;;;;10.27;3.30;;;;;;;20.05;55.12;99139.88;5069809;28;20029;-74
2021/06/16 06:32:21;;;;;;;7.35;3.05;;;;;;;20.10;55.22;99139.47;5071859;28;20025;-77
2021/06/16 06:34:46;;;;;;;7.10;3.13;;;;;;;20.39;55.76;99130.06;5062411;28;20033;-75
2021/06/16 06:37:12;;;;;;;12.32;3.88;;;;;;;20.63;54.91;99136.88;5053995;28;20033;-75
2021/06/16 06:39:37;;;;;;;13.10;4.40;;;;;;;20.72;53.94;99139.28;5053615;28;20036;-75
2021/06/16 06:42:03;;;;;;;18.35;4.72;;;;;;;20.77;54.01;99136.81;5055481;28;20032;-79
2021/06/16 06:44:29;;;;;;;10.90;4.57;;;;;;;20.76;53.50;99157.13;5065994;28;20032;-75
2021/06/16 06:46:54;;;;;;;10.88;4.50;;;;;;;20.71;53.97;99154.69;5062977;28;20021;-75
2021/06/16 06:49:20;;;;;;;6.80;4.00;;;;;;;20.73;53.79;99149.41;5060337;28;20090;-75
2021/06/16 06:51:45;;;;;;;12.88;5.35;;;;;;;20.68;53.74;99149.84;5067620;28;20465;-77
2021/06/16 06:54:11;;;;;;;13.25;4.45;;;;;;;20.69;54.02;99143.75;5058799;28;20040;-77
2021/06/16 06:56:37;;;;;;;5.68;3.55;;;;;;;20.68;54.01;99141.31;5067362;28;20063;-75
2021/06/16 06:59:03;;;;;;;6.40;3.92;;;;;;;20.62;54.05;99132.41;5068768;28;20021;-76
2021/06/16 07:01:29;;;;;;;5.65;3.97;;;;;;;20.75;54.08;99129.91;5063176;28;20056;-74
2021/06/16 07:03:55;;;;;;;18.67;4.35;;;;;;;20.75;54.47;99135.59;5057545;28;20021;-74
2021/06/16 07:06:20;;;;;;;25.20;5.00;;;;;;;20.60;54.26;99132.81;5054700;28;20032;-75
2021/06/16 07:08:46;;;;;;;5.22;3.42;;;;;;;20.67;54.44;99131.97;5055853;28;20514;-77
2021/06/16 07:11:11;;;;;;;13.80;4.47;;;;;;;20.60;54.63;99135.66;5061850;28;20032;-76
2021/06/16 07:13:37;;;;;;;7.68;3.50;;;;;;;20.66;54.60;99143.78;5064852;28;20144;-74
2021/06/16 07:16:02;;;;;;;7.07;3.80;;;;;;;20.66;54.87;99141.72;5069564;28;20060;-73
2021/06/16 07:18:28;;;;;;;9.88;3.60;;;;;;;20.61;54.98;99131.59;5060585;28;20049;-74
2021/06/16 07:20:53;;;;;;;6.18;3.60;;;;;;;20.64;55.15;99124.28;5052525;28;20035;-78
2021/06/16 07:23:19;;;;;;;8.23;4.00;;;;;;;20.65;55.27;99128.75;5062556;28;20455;-75
2021/06/16 07:25:44;;;;;;;6.50;3.90;;;;;;;20.65;55.44;99140.13;5058685;28;20494;-75
2021/06/16 07:28:10;;;;;;;5.10;3.35;;;;;;;20.77;55.04;99153.06;5059981;28;20033;-83
2021/06/16 07:30:35;;;;;;;8.57;3.92;;;;;;;20.88;55.27;99148.19;5059895;28;20033;-76
2021/06/16 07:33:01;;;;;;;4.93;3.58;;;;;;;20.95;55.18;99157.88;5070317;28;20024;-76
2021/06/16 07:35:27;;;;;;;5.70;3.42;;;;;;;21.02;54.43;99152.97;5070862;28;20025;-73
2021/06/16 07:37:52;;;;;;;4.25;3.40;;;;;;;21.07;54.47;99148.88;5064154;28;20033;-76
2021/06/16 07:40:18;;;;;;;3.58;3.25;;;;;;;21.14;54.80;99142.34;5068919;28;20395;-74
2021/06/16 07:42:44;;;;;;;6.47;3.70;;;;;;;21.13;53.83;99146.41;5070326;28;20024;-75
2021/06/16 07:45:11;;;;;;;5.85;2.72;;;;;;;21.17;54.14;99145.16;5069974;28;20039;-75
2021/06/16 07:47:36;;;;;;;11.45;3.60;;;;;;;21.28;54.17;99138.59;5056992;28;20029;-75
2021/06/16 07:50:04;;;;;;;8.57;3.97;;;;;;;21.36;54.06;99143.03;5065922;28;20110;-75
2021/06/16 07:52:30;;;;;;;11.18;3.55;;;;;;;21.34;53.30;99139.75;5070106;28;20033;-76
2021/06/16 07:54:56;;;;;;;6.30;3.63;;;;;;;21.27;53.71;99142.69;5070160;28;20048;-74
2021/06/16 07:57:21;;;;;;;6.75;3.50;;;;;;;21.17;53.66;99142.31;5063729;28;20491;-76
2021/06/16 07:59:47;;;;;;;5.82;3.22;;;;;;;21.22;54.17;99137.41;5070165;28;20029;-74
2021/06/16 08:02:12;;;;;;;7.10;3.80;;;;;;;21.31;53.80;99146.28;5070475;28;20436;-75
2021/06/16 08:04:40;;;;;;;6.35;3.50;;;;;;;21.22;54.34;99149.59;5067992;28;20079;-76
2021/06/16 08:07:10;;;;;;;7.68;3.72;;;;;;;21.24;53.81;99140.66;5057726;28;20037;-75
2021/06/16 08:09:37;;;;;;;4.55;3.60;;;;;;;21.16;54.67;99139.88;5056578;28;20556;-75
2021/06/16 08:12:03;;;;;;;4.63;3.53;;;;;;;21.27;54.61;99139.81;5068573;28;20039;-75
2021/06/16 08:14:29;;;;;;;8.93;3.80;;;;;;;21.32;54.91;99142.22;5057132;28;20037;-75
2021/06/16 08:16:55;;;;;;;9.43;3.60;;;;;;;21.52;55.54;99139.63;5064061;28;20021;-75
2021/06/16 08:19:20;;;;;;;5.78;3.30;;;;;;;21.77;53.74;99126.47;5069088;28;20103;-74
2021/06/16 08:21:46;;;;;;;7.20;3.60;;;;;;;21.95;52.85;99141.31;5069757;28;20444;-75
2021/06/16 08:24:11;;;;;;;8.63;3.80;;;;;;;21.92;52.87;99153.56;5060579;28;20637;-76
2021/06/16 08:26:37;;;;;;;10.32;3.92;;;;;;;21.94;52.45;99151.09;5070116;28;20505;-75
2021/06/16 08:29:02;;;;;;;4.25;3.28;;;;;;;21.94;52.85;99136.88;5068748;28;20123;-75
2021/06/16 08:31:28;;;;;;;8.82;4.10;;;;;;;22.06;52.89;99146.13;5073486;28;20054;-75
2021/06/16 08:33:53;;;;;;;7.93;4.10;;;;;;;22.03;52.54;99162.03;5069867;28;20025;-75
2021/06/16 08:36:20;;;;;;;3.28;2.97;;;;;;;22.13;51.82;99163.16;5072743;28;20106;-75
2021/06/16 08:38:46;;;;;;;6.25;3.25;;;;;;;22.13;51.66;99169.63;5073927;28;20032;-75
2021/06/16 08:41:12;;;;;;;4.93;3.45;;;;;;;22.12;51.84;99175.75;5070390;28;20410;-75
2021/06/16 08:43:41;;;;;;;3.75;3.22;;;;;;;22.19;51.84;99166.34;5065833;28;20079;-75
2021/06/16 08:46:09;;;;;;;4.75;3.20;;;;;;;22.15;50.95;99170.03;5063088;28;20370;-75
2021/06/16 08:48:36;;;;;;;6.72;3.00;;;;;;;22.25;51.35;99170.34;5072329;28;20050;-75
2021/06/16 08:51:03;;;;;;;5.35;2.90;;;;;;;22.30;50.79;99161.34;5059247;28;20116;-75
2021/06/16 08:53:29;;;;;;;14.68;4.45;;;;;;;22.41;51.32;99164.88;5061469;28;20083;-75
2021/06/16 08:55:55;;;;;;;6.38;3.00;;;;;;;22.65;50.36;99161.38;5066534;28;20032;-75
2021/06/16 08:58:20;;;;;;;7.55;3.67;;;;;;;22.65;49.61;99167.91;5072126;28;20023;-76
2021/06/16 09:00:46;;;;;;;3.97;2.90;;;;;;;22.76;49.51;99164.13;5066627;28;20167;-76
2021/06/16 09:03:11;;;;;;;4.90;3.30;;;;;;;22.91;48.58;99161.88;5056555;28;20031;-77
2021/06/16 09:05:38;;;;;;;8.10;3.63;;;;;;;23.00;48.60;99159.31;5056525;28;20029;-77
2021/06/16 09:08:18;;;;;;;3.88;3.47;;;;;;;23.23;49.10;99152.06;5065619;28;20488;-76
2021/06/16 09:10:45;;;;;;;4.20;3.33;;;;;;;23.36;47.23;99140.94;5062013;28;20029;-74
2021/06/16 09:13:22;;;;;;;7.30;2.80;;;;;;;23.36;46.95;99147.41;5059885;28;20174;-74
2021/06/16 09:15:48;;;;;;;7.28;3.90;;;;;;;23.46;47.07;99153.41;5063293;28;20021;-74
2021/06/16 09:18:14;;;;;;;9.63;3.00;;;;;;;23.52;47.75;99161.03;5063852;28;20056;-85
2021/06/16 09:20:46;;;;;;;6.05;3.55;;;;;;;23.45;46.96;99157.50;5064469;28;20097;-78
2021/06/16 09:23:14;;;;;;;3.63;3.15;;;;;;;23.29;47.12;99170.38;5057931;28;20075;-75
2021/06/16 09:25:44;;;;;;;3.22;2.90;;;;;;;23.24;46.67;99170.81;5062115;28;20482;-77
2021/06/16 09:28:11;;;;;;;3.10;2.80;;;;;;;23.16;47.14;99174.97;5068723;28;20025;-73
2021/06/16 09:30:41;;;;;;;6.78;2.90;;;;;;;23.25;46.90;99180.97;5066740;28;20396;-74
2021/06/16 09:33:10;;;;;;;6.15;3.00;;;;;;;23.27;47.06;99179.34;5072782;28;20108;-78
2021/06/16 09:35:49;;;;;;;10.18;2.75;;;;;;;23.33;47.42;99181.69;5066123;28;20029;-73
2021/06/16 09:38:23;;;;;;;10.40;2.67;;;;;;;23.40;47.29;99188.09;5070924;28;20029;-78
2021/06/16 09:40:48;;;;;;;5.15;3.30;;;;;;;23.49;47.33;99190.44;5060410;28;20123;-77
2021/06/16 09:43:16;;;;;;;3.30;2.97;;;;;;;23.45;46.78;99183.19;5061366;28;20029;-77
2021/06/16 09:45:44;;;;;;;3.45;3.15;;;;;;;23.45;46.92;99186.81;5059751;28;20037;-78
2021/06/16 09:48:32;;;;;;;5.82;3.08;;;;;;;23.47;47.24;99189.25;5068432;28;20444;-80
2021/06/16 09:51:09;;;;;;;4.60;3.00;;;;;;;23.39;47.12;99185.72;5060549;28;20462;-80
2021/06/16 09:54:14;;;;;;;4.07;2.70;;;;;;;23.40;46.59;99188.09;5070034;28;20119;-77
2021/06/16 09:56:59;;;;;;;4.35;2.88;;;;;;;23.41;46.73;99180.38;5071587;28;20434;-74
2021/06/16 09:59:42;;;;;;;2.85;2.60;;;;;;;23.49;47.58;99201.88;5067000;28;20044;-73
2021/06/16 10:02:23;;;;;;;6.25;3.65;;;;;;;23.55;47.73;99193.63;5067697;28;20035;-75
2021/06/16 10:04:57;;;;;;;5.43;3.50;;;;;;;23.69;47.53;99201.97;5070445;28;20036;-77
2021/06/16 10:07:30;;;;;;;11.52;4.35;;;;;;;23.76;47.01;99203.91;5068353;28;20020;-73
2021/06/16 10:10:02;;;;;;;4.72;2.70;;;;;;;23.75;46.23;99213.69;5068509;28;20044;-73
2021/06/16 10:12:41;;;;;;;8.40;5.22;;;;;;;23.87;45.06;99212.28;5070357;28;20409;-84
2021/06/16 10:15:25;;;;;;;5.90;3.47;;;;;;;23.79;45.83;99202.22;5061510;28;20491;-80
2021/06/16 10:17:50;;;;;;;5.75;2.70;;;;;;;23.88;45.87;99204.53;5067459;28;20161;-79
2021/06/16 10:20:17;;;;;;;3.10;2.78;;;;;;;23.88;45.60;99211.03;5070889;28;20050;-79
2021/06/16 10:22:43;;;;;;;3.95;2.60;;;;;;;23.90;45.77;99213.47;5068603;28;20027;-78
2021/06/16 10:25:09;;;;;;;4.75;3.25;;;;;;;23.89;45.71;99211.84;5065180;28;20029;-74
2021/06/16 10:27:39;;;;;;;10.77;3.38;;;;;;;23.98;46.16;99210.06;5061006;28;20040;-74
2021/06/16 10:30:12;;;;;;;6.20;3.13;;;;;;;24.05;45.84;99223.44;5067602;28;20028;-75
2021/06/16 10:32:39;;;;;;;9.57;3.15;;;;;;;24.13;45.00;99214.75;5062037;28;20029;-73
2021/06/16 10:35:07;;;;;;;5.68;3.00;;;;;;;24.03;43.92;99217.34;5070052;28;20067;-73
2021/06/16 10:37:36;;;;;;;6.50;2.83;;;;;;;24.14;43.82;99222.06;5067719;28;20032;-73
2021/06/16 10:40:24;;;;;;;3.57;3.07;;;;;;;24.17;44.17;99216.31;5069539;28;20483;-74
2021/06/16 10:43:00;;;;;;;3.55;2.60;;;;;;;24.33;43.62;99217.66;5063616;28;20028;-76
2021/06/16 10:45:34;;;;;;;5.32;2.83;;;;;;;24.37;43.36;99221.25;5066160;28;20490;-75
2021/06/16 10:48:08;;;;;;;7.97;2.78;;;;;;;24.62;42.80;99212.22;5063917;28;20075;-77
2021/06/16 10:50:46;;;;;;;2.60;2.40;;;;;;;24.89;40.96;99210.50;5067364;28;20086;-78
2021/06/16 10:53:14;;;;;;;5.47;2.40;;;;;;;25.19;39.25;99211.50;5069353;28;20020;-78
2021/06/16 10:56:02;;;;;;;3.65;2.25;;;;;;;25.27;39.08;99215.81;5070292;28;20063;-78
2021/06/16 10:58:45;;;;;;;10.95;2.47;;;;;;;25.35;39.20;99223.00;5068178;28;20089;-77
2021/06/16 11:01:19;;;;;;;3.28;2.70;;;;;;;25.12;39.06;99220.25;5070133;28;20512;-77
2021/06/16 11:03:51;;;;;;;5.38;3.20;;;;;;;25.18;40.24;99221.34;5070314;28;20037;-76
2021/06/16 11:06:32;;;;;;;2.70;2.50;;;;;;;25.24;39.34;99216.72;5071015;28;20056;-78
2021/06/16 11:08:59;;;;;;;5.00;2.60;;;;;;;25.19;39.46;99222.94;5070550;28;20502;-80
2021/06/16 11:11:50;;;;;;;3.90;2.42;;;;;;;25.14;40.20;99217.75;5069382;28;20127;-79
2021/06/16 11:14:35;;;;;;;3.15;2.45;;;;;;;25.01;39.47;99215.56;5068154;28;20025;-80
2021/06/16 11:17:08;;;;;;;2.80;2.60;;;;;;;25.07;39.52;99213.00;5070375;28;20068;-82
2021/06/16 11:19:36;;;;;;;2.67;2.10;;;;;;;25.06;39.97;99217.91;5068497;28;20056;-80
2021/06/16 11:22:24;;;;;;;3.63;2.65;;;;;;;25.10;40.14;99217.81;5069356;28;20035;-80
2021/06/16 11:25:12;;;;;;;4.97;2.95;;;;;;;25.13;41.07;99216.13;5069815;28;20133;-79
2021/06/16 11:27:53;;;;;;;2.67;2.47;;;;;;;25.06;40.24;99217.91;5067424;28;20474;-80
2021/06/16 11:30:35;;;;;;;11.70;3.47;;;;;;;25.20;40.49;99213.09;5064442;28;20422;-80
2021/06/16 11:33:16;;;;;;;2.72;2.47;;;;;;;25.20;40.96;99204.53;5056245;28;20124;-78
2021/06/16 11:35:41;;;;;;;4.28;2.92;;;;;;;25.02;40.13;99204.91;5055290;28;20274;-78
2021/06/16 11:38:08;;;;;;;4.90;2.50;;;;;;;25.16;41.23;99206.66;5056494;28;20558;-80